createdAt,value
2018-11-02T00:00:29.969Z,9.99
2018-11-02T00:01:29.968Z,10.07
2018-11-02T00:02:29.955Z,9.97
2018-11-02T00:03:29.986Z,10.02
2018-11-02T00:04:29.945Z,9.97
2018-11-02T00:05:29.938Z,9.98
2018-11-02T00:06:30.154Z,9.97
2018-11-02T00:07:29.926Z,9.98
2018-11-02T00:08:30.018Z,9.97
2018-11-02T00:09:29.913Z,9.95
2018-11-02T00:10:29.907Z,9.94
2018-11-02T00:11:29.900Z,9.97
2018-11-02T00:12:30.001Z,9.91
2018-11-02T00:13:29.895Z,9.92
2018-11-02T00:14:29.882Z,9.92
2018-11-02T00:15:29.884Z,9.94
2018-11-02T00:16:29.872Z,9.92
2018-11-02T00:17:29.862Z,9.95
2018-11-02T00:18:29.858Z,9.91
2018-11-02T00:19:29.853Z,9.87
2018-11-02T00:20:29.899Z,9.83
2018-11-02T00:21:29.842Z,9.86
2018-11-02T00:22:29.832Z,9.86
2018-11-02T00:23:29.830Z,9.86
2018-11-02T00:24:29.820Z,9.83
2018-11-02T00:25:29.815Z,9.82
2018-11-02T00:26:29.809Z,9.72
2018-11-02T00:27:29.858Z,9.76
2018-11-02T00:28:29.798Z,9.72
2018-11-02T00:29:29.789Z,9.68
2018-11-02T00:30:29.783Z,9.62
2018-11-02T00:31:29.787Z,9.55
2018-11-02T00:32:29.803Z,9.58
2018-11-02T00:33:29.769Z,9.62
2018-11-02T00:34:29.763Z,9.56
2018-11-02T00:35:29.790Z,9.47
2018-11-02T00:36:29.776Z,9.47
2018-11-02T00:37:29.821Z,9.46
2018-11-02T00:38:29.757Z,9.50
2018-11-02T00:39:30.367Z,9.37
2018-11-02T00:40:29.717Z,9.31
2018-11-02T00:41:29.714Z,9.36
2018-11-02T00:42:29.707Z,9.29
2018-11-02T00:43:29.737Z,9.32
2018-11-02T00:44:29.702Z,9.28
2018-11-02T00:45:29.697Z,9.22
2018-11-02T00:46:29.696Z,9.25
2018-11-02T00:47:29.676Z,9.21
2018-11-02T00:48:29.669Z,9.16
2018-11-02T00:49:29.676Z,9.18
2018-11-02T00:50:29.696Z,9.16
2018-11-02T00:51:29.651Z,9.08
2018-11-02T00:52:29.648Z,9.10
2018-11-02T00:53:29.637Z,9.04
2018-11-02T00:54:29.631Z,8.99
2018-11-02T00:55:29.622Z,9.00
2018-11-02T00:56:29.614Z,9.04
2018-11-02T00:57:29.609Z,9.04
2018-11-02T00:58:29.605Z,8.89
2018-11-02T00:59:29.596Z,8.91
2018-11-02T01:00:29.628Z,8.91
2018-11-02T01:01:29.582Z,8.84
2018-11-02T01:02:29.575Z,8.97
2018-11-02T01:03:29.573Z,8.89
2018-11-02T01:04:29.564Z,8.78
2018-11-02T01:05:29.554Z,8.79
2018-11-02T01:06:29.566Z,8.88
2018-11-02T01:07:29.546Z,8.85
2018-11-02T01:08:29.549Z,8.81
2018-11-02T01:09:29.532Z,8.78
2018-11-02T01:10:29.523Z,8.84
2018-11-02T01:11:29.515Z,8.78
2018-11-02T01:12:29.521Z,8.85
2018-11-02T01:13:29.501Z,8.79
2018-11-02T01:14:29.495Z,8.81
2018-11-02T01:15:29.488Z,8.79
2018-11-02T01:16:29.533Z,8.69
2018-11-02T01:17:29.474Z,8.74
2018-11-02T01:18:29.489Z,8.70
2018-11-02T01:19:29.463Z,8.64
2018-11-02T01:20:29.453Z,8.58
2018-11-02T01:21:29.447Z,8.63
2018-11-02T01:22:29.439Z,8.61
2018-11-02T01:23:29.434Z,8.58
2018-11-02T01:24:29.427Z,8.64
2018-11-02T01:25:29.414Z,8.58
2018-11-02T01:26:29.414Z,8.58
2018-11-02T01:27:29.406Z,8.60
2018-11-02T01:28:29.403Z,8.64
2018-11-02T01:29:29.387Z,8.60
2018-11-02T01:30:29.387Z,8.58
2018-11-02T01:31:29.378Z,8.56
2018-11-02T01:32:29.370Z,8.52
2018-11-02T01:33:29.363Z,8.52
2018-11-02T01:34:29.360Z,8.60
2018-11-02T01:35:29.350Z,8.51
2018-11-02T01:36:29.365Z,8.56
2018-11-02T01:37:29.336Z,8.49
2018-11-02T01:38:29.345Z,8.55
2018-11-02T01:39:29.321Z,8.51
2018-11-02T01:40:29.318Z,8.53
2018-11-02T01:41:29.307Z,8.52
2018-11-02T01:42:29.308Z,8.51
2018-11-02T01:43:29.293Z,8.53
2018-11-02T01:44:29.288Z,8.46
2018-11-02T01:45:29.281Z,8.55
2018-11-02T01:46:29.273Z,8.49
2018-11-02T01:47:29.292Z,8.49
2018-11-02T01:48:29.267Z,8.51
2018-11-02T01:49:29.256Z,8.38
2018-11-02T01:50:29.251Z,8.41
2018-11-02T01:51:29.236Z,8.34
2018-11-02T01:52:29.229Z,8.36
2018-11-02T01:53:29.224Z,8.37
2018-11-02T01:54:29.224Z,8.36
2018-11-02T01:55:29.214Z,8.38
2018-11-02T01:56:29.204Z,8.37
2018-11-02T01:57:29.208Z,8.33
2018-11-02T01:58:29.190Z,8.34
2018-11-02T01:59:29.230Z,8.31
2018-11-02T02:00:29.182Z,8.31
2018-11-02T02:01:29.167Z,8.31
2018-11-02T02:02:29.161Z,8.33
2018-11-02T02:03:29.162Z,8.33
2018-11-02T02:04:29.155Z,8.28
2018-11-02T02:05:29.138Z,8.34
2018-11-02T02:06:29.132Z,8.33
2018-11-02T02:07:29.125Z,8.30
2018-11-02T02:08:29.118Z,8.36
2018-11-02T02:09:29.109Z,8.37
2018-11-02T02:10:29.104Z,8.33
2018-11-02T02:11:29.601Z,8.37
2018-11-02T02:12:29.093Z,8.33
2018-11-02T02:13:29.080Z,8.33
2018-11-02T02:14:29.073Z,8.34
2018-11-02T02:15:29.065Z,8.33
2018-11-02T02:16:29.058Z,8.33
2018-11-02T02:17:29.057Z,8.30
2018-11-02T02:18:29.043Z,8.36
2018-11-02T02:19:29.038Z,8.36
2018-11-02T02:20:29.034Z,8.34
2018-11-02T02:21:29.027Z,8.26
2018-11-02T02:22:29.035Z,8.36
2018-11-02T02:23:29.010Z,8.31
2018-11-02T02:24:29.003Z,8.31
2018-11-02T02:25:29.021Z,8.30
2018-11-02T02:26:28.995Z,8.31
2018-11-02T02:27:28.982Z,8.30
2018-11-02T02:28:28.972Z,8.31
2018-11-02T02:29:28.967Z,8.33
2018-11-02T02:30:28.968Z,8.33
2018-11-02T02:31:29.158Z,8.30
2018-11-02T02:32:28.945Z,8.36
2018-11-02T02:33:28.936Z,8.30
2018-11-02T02:34:28.926Z,8.31
2018-11-02T02:35:28.924Z,8.31
2018-11-02T02:36:28.918Z,8.36
2018-11-02T02:37:28.918Z,8.36
2018-11-02T02:38:28.902Z,8.31
2018-11-02T02:39:28.895Z,8.33
2018-11-02T02:40:28.887Z,8.37
2018-11-02T02:41:28.880Z,8.38
2018-11-02T02:42:28.900Z,8.34
2018-11-02T02:43:28.864Z,8.33
2018-11-02T02:44:28.856Z,8.34
2018-11-02T02:45:28.886Z,8.33
2018-11-02T02:46:28.854Z,8.18
2018-11-02T02:47:28.843Z,8.28
2018-11-02T02:48:28.826Z,8.16
2018-11-02T02:49:28.821Z,8.33
2018-11-02T02:50:28.817Z,8.23
2018-11-02T02:51:28.807Z,8.26
2018-11-02T02:52:28.811Z,8.27
2018-11-02T02:53:28.792Z,8.26
2018-11-02T02:54:28.781Z,8.16
2018-11-02T02:55:28.775Z,8.27
2018-11-02T02:56:28.770Z,8.26
2018-11-02T02:57:28.762Z,8.34
2018-11-02T02:58:28.768Z,8.23
2018-11-02T02:59:28.746Z,8.26
2018-11-02T03:00:28.739Z,8.23
2018-11-02T03:01:28.737Z,8.19
2018-11-02T03:02:28.730Z,8.16
2018-11-02T03:03:28.725Z,8.13
2018-11-02T03:04:28.715Z,8.19
2018-11-02T03:05:28.708Z,8.18
2018-11-02T03:06:28.699Z,8.10
2018-11-02T03:07:28.734Z,8.10
2018-11-02T03:08:28.686Z,8.06
2018-11-02T03:09:28.677Z,8.13
2018-11-02T03:10:28.768Z,8.08
2018-11-02T03:11:28.661Z,8.09
2018-11-02T03:12:28.656Z,8.09
2018-11-02T03:13:28.647Z,8.10
2018-11-02T03:14:28.642Z,8.03
2018-11-02T03:15:28.633Z,8.01
2018-11-02T03:16:28.629Z,8.05
2018-11-02T03:17:28.616Z,8.05
2018-11-02T03:18:28.639Z,8.05
2018-11-02T03:19:28.603Z,8.00
2018-11-02T03:20:28.599Z,7.98
2018-11-02T03:21:28.592Z,7.97
2018-11-02T03:22:28.625Z,8.00
2018-11-02T03:23:28.573Z,7.94
2018-11-02T03:24:28.568Z,7.83
2018-11-02T03:25:28.559Z,7.87
2018-11-02T03:26:28.550Z,7.97
2018-11-02T03:27:28.544Z,7.94
2018-11-02T03:28:28.536Z,7.83
2018-11-02T03:29:28.531Z,7.80
2018-11-02T03:30:28.520Z,7.85
2018-11-02T03:31:28.516Z,7.87
2018-11-02T03:32:28.507Z,7.79
2018-11-02T03:33:28.498Z,7.88
2018-11-02T03:34:28.492Z,7.88
2018-11-02T03:35:28.479Z,7.91
2018-11-02T03:36:28.476Z,8.00
2018-11-02T03:37:28.468Z,7.97
2018-11-02T03:38:28.461Z,8.00
2018-11-02T03:39:28.454Z,8.01
2018-11-02T03:40:28.446Z,8.03
2018-11-02T03:41:28.437Z,8.03
2018-11-02T03:42:28.428Z,8.13
2018-11-02T03:43:28.843Z,8.06
2018-11-02T03:44:28.414Z,8.09
2018-11-02T03:45:28.405Z,8.20
2018-11-02T03:46:28.397Z,8.15
2018-11-02T03:47:28.391Z,8.19
2018-11-02T03:48:28.381Z,8.19
2018-11-02T03:49:28.373Z,8.27
2018-11-02T03:50:28.365Z,8.27
2018-11-02T03:51:28.358Z,8.27
2018-11-02T03:52:28.352Z,8.30
2018-11-02T03:53:28.343Z,8.28
2018-11-02T03:54:28.337Z,8.31
2018-11-02T03:55:28.331Z,8.31
2018-11-02T03:56:28.345Z,8.34
2018-11-02T03:57:28.314Z,8.38
2018-11-02T03:58:28.305Z,8.33
2018-11-02T03:59:28.299Z,8.30
2018-11-02T04:00:28.290Z,8.31
2018-11-02T04:01:28.282Z,8.34
2018-11-02T04:02:28.275Z,8.30
2018-11-02T04:03:28.267Z,8.34
2018-11-02T04:04:28.259Z,8.33
2018-11-02T04:05:28.262Z,8.31
2018-11-02T04:06:28.243Z,8.30
2018-11-02T04:07:28.237Z,8.30
2018-11-02T04:08:28.231Z,8.30
2018-11-02T04:09:28.296Z,8.31
2018-11-02T04:10:28.212Z,8.38
2018-11-02T04:11:28.207Z,8.34
2018-11-02T04:12:28.197Z,8.34
2018-11-02T04:13:28.190Z,8.31
2018-11-02T04:14:28.182Z,8.19
2018-11-02T04:15:28.176Z,8.20
2018-11-02T04:16:28.168Z,8.20
2018-11-02T04:17:28.157Z,8.20
2018-11-02T04:18:34.956Z,8.27
2018-11-02T04:19:28.144Z,8.16
2018-11-02T04:20:28.134Z,8.18
2018-11-02T04:21:28.128Z,8.23
2018-11-02T04:22:28.120Z,8.15
2018-11-02T04:23:28.112Z,8.18
2018-11-02T04:24:28.103Z,8.16
2018-11-02T04:25:28.096Z,8.15
2018-11-02T04:26:28.089Z,8.10
2018-11-02T04:27:28.080Z,8.16
2018-11-02T04:28:28.075Z,8.16
2018-11-02T04:29:28.066Z,8.15
2018-11-02T04:30:28.057Z,8.13
2018-11-02T04:31:28.054Z,8.05
2018-11-02T04:32:28.045Z,8.10
2018-11-02T04:33:28.035Z,8.05
2018-11-02T04:34:28.028Z,8.12
2018-11-02T04:35:28.020Z,8.05
2018-11-02T04:36:28.023Z,8.12
2018-11-02T04:37:28.003Z,8.09
2018-11-02T04:38:27.996Z,8.10
2018-11-02T04:39:27.988Z,8.10
2018-11-02T04:40:27.977Z,8.05
2018-11-02T04:41:27.976Z,8.10
2018-11-02T04:42:27.967Z,8.09
2018-11-02T04:43:27.959Z,8.09
2018-11-02T04:44:27.953Z,8.06
2018-11-02T04:45:27.944Z,8.06
2018-11-02T04:46:27.933Z,8.15
2018-11-02T04:47:27.930Z,8.06
2018-11-02T04:48:27.923Z,8.05
2018-11-02T04:49:27.912Z,8.01
2018-11-02T04:50:27.904Z,8.08
2018-11-02T04:51:27.898Z,8.05
2018-11-02T04:52:27.892Z,8.03
2018-11-02T04:53:27.881Z,8.09
2018-11-02T04:54:27.876Z,8.12
2018-11-02T04:55:28.399Z,8.06
2018-11-02T04:56:27.858Z,8.06
2018-11-02T04:57:27.849Z,8.03
2018-11-02T04:58:27.845Z,8.03
2018-11-02T04:59:27.837Z,8.03
2018-11-02T05:00:27.833Z,8.01
2018-11-02T05:01:27.821Z,8.05
2018-11-02T05:02:27.811Z,8.01
2018-11-02T05:03:27.806Z,8.03
2018-11-02T05:04:27.798Z,7.97
2018-11-02T05:05:27.788Z,7.98
2018-11-02T05:06:27.782Z,7.97
2018-11-02T05:07:27.773Z,7.98
2018-11-02T05:08:27.767Z,7.94
2018-11-02T05:09:27.762Z,7.98
2018-11-02T05:10:27.752Z,7.98
2018-11-02T05:11:27.800Z,7.97
2018-11-02T05:12:27.735Z,7.93
2018-11-02T05:13:27.727Z,7.91
2018-11-02T05:14:27.741Z,7.88
2018-11-02T05:15:27.996Z,7.88
2018-11-02T05:16:27.731Z,7.76
2018-11-02T05:17:27.776Z,7.70
2018-11-02T05:18:27.705Z,7.70
2018-11-02T05:19:27.681Z,7.69
2018-11-02T05:20:27.676Z,7.73
2018-11-02T05:21:27.831Z,7.70
2018-11-02T05:22:27.661Z,7.67
2018-11-02T05:23:27.651Z,7.63
2018-11-02T05:24:27.644Z,7.54
2018-11-02T05:25:27.637Z,7.57
2018-11-02T05:26:27.628Z,7.56
2018-11-02T05:27:27.623Z,7.53
2018-11-02T05:28:27.615Z,7.54
2018-11-02T05:29:27.601Z,7.57
2018-11-02T05:30:27.596Z,7.54
2018-11-02T05:31:27.587Z,7.54
2018-11-02T05:32:27.581Z,7.58
2018-11-02T05:33:27.574Z,7.63
2018-11-02T05:34:27.560Z,7.61
2018-11-02T05:35:27.557Z,7.67
2018-11-02T05:36:27.554Z,7.58
2018-11-02T05:37:27.539Z,7.54
2018-11-02T05:38:27.531Z,7.63
2018-11-02T05:39:27.561Z,7.63
2018-11-02T05:40:27.515Z,7.54
2018-11-02T05:41:27.507Z,7.53
2018-11-02T05:42:27.501Z,7.51
2018-11-02T05:43:27.499Z,7.48
2018-11-02T05:44:27.488Z,7.50
2018-11-02T05:45:27.477Z,7.50
2018-11-02T05:46:28.378Z,7.56
2018-11-02T05:47:27.553Z,7.51
2018-11-02T05:48:27.453Z,7.56
2018-11-02T05:49:27.444Z,7.48
2018-11-02T05:50:27.439Z,7.56
2018-11-02T05:51:27.430Z,7.57
2018-11-02T05:52:27.422Z,7.54
2018-11-02T05:53:27.434Z,7.58
2018-11-02T05:54:27.507Z,7.66
2018-11-02T05:55:27.399Z,7.69
2018-11-02T05:56:27.389Z,7.67
2018-11-02T05:57:27.380Z,7.70
2018-11-02T05:58:27.378Z,7.73
2018-11-02T05:59:27.365Z,7.66
2018-11-02T06:00:27.361Z,7.75
2018-11-02T06:01:27.432Z,7.82
2018-11-02T06:02:27.342Z,7.73
2018-11-02T06:03:27.339Z,7.72
2018-11-02T06:04:27.334Z,7.70
2018-11-02T06:05:27.320Z,7.69
2018-11-02T06:06:27.310Z,7.70
2018-11-02T06:07:27.327Z,7.70
2018-11-02T06:08:27.296Z,7.70
2018-11-02T06:09:27.297Z,7.77
2018-11-02T06:10:27.277Z,7.70
2018-11-02T06:11:27.274Z,7.76
2018-11-02T06:12:27.264Z,7.75
2018-11-02T06:13:27.266Z,7.80
2018-11-02T06:14:27.250Z,7.80
2018-11-02T06:15:27.243Z,7.75
2018-11-02T06:16:27.237Z,7.77
2018-11-02T06:17:27.224Z,7.79
2018-11-02T06:18:27.218Z,7.80
2018-11-02T06:19:27.211Z,7.83
2018-11-02T06:20:27.204Z,7.83
2018-11-02T06:21:27.236Z,7.83
2018-11-02T06:22:27.186Z,7.76
2018-11-02T06:23:27.212Z,7.80
2018-11-02T06:24:27.195Z,7.80
2018-11-02T06:25:27.193Z,7.83
2018-11-02T06:26:27.159Z,7.87
2018-11-02T06:27:27.150Z,7.85
2018-11-02T06:28:27.142Z,7.82
2018-11-02T06:29:27.132Z,7.80
2018-11-02T06:30:27.136Z,7.85
2018-11-02T06:31:27.119Z,7.83
2018-11-02T06:32:27.130Z,7.85
2018-11-02T06:33:27.101Z,7.77
2018-11-02T06:34:27.095Z,7.80
2018-11-02T06:35:27.087Z,7.83
2018-11-02T06:36:27.081Z,7.93
2018-11-02T06:37:27.070Z,7.91
2018-11-02T06:38:27.140Z,8.00
2018-11-02T06:39:27.064Z,7.97
2018-11-02T06:40:27.050Z,7.95
2018-11-02T06:41:27.044Z,7.95
2018-11-02T06:42:27.034Z,8.03
2018-11-02T06:43:27.025Z,7.97
2018-11-02T06:44:27.026Z,8.01
2018-11-02T06:45:27.031Z,7.94
2018-11-02T06:46:27.012Z,7.98
2018-11-02T06:47:27.152Z,8.03
2018-11-02T06:48:26.989Z,8.06
2018-11-02T06:49:26.984Z,7.98
2018-11-02T06:50:26.970Z,7.98
2018-11-02T06:51:26.966Z,8.06
2018-11-02T06:52:26.957Z,8.09
2018-11-02T06:53:26.965Z,8.08
2018-11-02T06:54:26.943Z,8.08
2018-11-02T06:55:26.935Z,8.06
2018-11-02T06:56:26.935Z,8.05
2018-11-02T06:57:26.920Z,8.06
2018-11-02T06:58:26.912Z,8.08
2018-11-02T06:59:27.074Z,8.03
2018-11-02T07:00:27.052Z,8.08
2018-11-02T07:01:26.888Z,8.01
2018-11-02T07:02:26.897Z,8.08
2018-11-02T07:03:26.874Z,8.06
2018-11-02T07:04:26.866Z,8.05
2018-11-02T07:05:26.857Z,8.03
2018-11-02T07:06:26.850Z,8.03
2018-11-02T07:07:27.111Z,8.06
2018-11-02T07:08:26.890Z,8.03
2018-11-02T07:09:26.832Z,8.00
2018-11-02T07:10:26.829Z,8.05
2018-11-02T07:11:26.813Z,8.09
2018-11-02T07:12:26.806Z,8.08
2018-11-02T07:13:26.805Z,8.10
2018-11-02T07:14:26.794Z,8.08
2018-11-02T07:15:26.806Z,8.05
2018-11-02T07:16:26.778Z,8.15
2018-11-02T07:17:26.771Z,8.10
2018-11-02T07:18:27.537Z,8.08
2018-11-02T07:19:26.754Z,8.16
2018-11-02T07:20:26.751Z,8.12
2018-11-02T07:21:26.739Z,8.16
2018-11-02T07:22:26.734Z,8.12
2018-11-02T07:23:26.743Z,8.10
2018-11-02T07:24:26.718Z,8.15
2018-11-02T07:25:26.720Z,8.15
2018-11-02T07:26:26.699Z,8.18
2018-11-02T07:27:26.697Z,8.19
2018-11-02T07:28:26.684Z,8.23
2018-11-02T07:29:26.677Z,8.20
2018-11-02T07:30:26.735Z,8.27
2018-11-02T07:31:26.664Z,8.20
2018-11-02T07:32:26.671Z,8.31
2018-11-02T07:33:26.647Z,8.33
2018-11-02T07:34:26.759Z,8.36
2018-11-02T07:35:26.633Z,8.31
2018-11-02T07:36:26.634Z,8.34
2018-11-02T07:37:26.621Z,8.36
2018-11-02T07:38:26.612Z,8.37
2018-11-02T07:39:26.604Z,8.37
2018-11-02T07:40:26.594Z,8.34
2018-11-02T07:41:26.591Z,8.33
2018-11-02T07:42:26.581Z,8.41
2018-11-02T07:43:26.580Z,8.37
2018-11-02T07:44:26.591Z,8.33
2018-11-02T07:45:26.627Z,8.31
2018-11-02T07:46:26.553Z,8.38
2018-11-02T07:47:26.568Z,8.38
2018-11-02T07:48:26.535Z,8.48
2018-11-02T07:49:26.579Z,8.41
2018-11-02T07:50:26.618Z,8.48
2018-11-02T07:51:26.522Z,8.45
2018-11-02T07:52:26.508Z,8.45
2018-11-02T07:53:26.507Z,8.48
2018-11-02T07:54:26.496Z,8.51
2018-11-02T07:55:26.491Z,8.49
2018-11-02T07:56:26.480Z,8.49
2018-11-02T07:57:26.471Z,8.48
2018-11-02T07:58:26.482Z,8.51
2018-11-02T07:59:26.481Z,8.46
2018-11-02T08:00:26.451Z,8.56
2018-11-02T08:01:26.443Z,8.55
2018-11-02T08:02:26.482Z,8.64
2018-11-02T08:03:26.477Z,8.58
2018-11-02T08:04:26.421Z,8.61
2018-11-02T08:05:26.578Z,8.58
2018-11-02T08:06:26.405Z,8.56
2018-11-02T08:07:26.571Z,8.70
2018-11-02T08:08:26.769Z,8.67
2018-11-02T08:09:26.604Z,8.69
2018-11-02T08:10:26.652Z,8.73
2018-11-02T08:11:26.593Z,8.82
2018-11-02T08:12:26.362Z,8.79
2018-11-02T08:13:26.354Z,8.88
2018-11-02T08:14:26.908Z,8.85
2018-11-02T08:15:26.341Z,8.87
2018-11-02T08:16:26.336Z,8.84
2018-11-02T08:17:27.952Z,8.92
2018-11-02T08:18:27.981Z,9.00
2018-11-02T08:19:26.357Z,9.06
2018-11-02T08:20:26.302Z,9.10
2018-11-02T08:21:26.392Z,9.04
2018-11-02T08:22:26.400Z,9.13
2018-11-02T08:23:26.332Z,9.10
2018-11-02T08:24:26.282Z,9.25
2018-11-02T08:25:27.979Z,9.21
2018-11-02T08:26:26.257Z,9.23
2018-11-02T08:27:26.254Z,9.36
2018-11-02T08:28:26.306Z,9.23
2018-11-02T08:29:26.263Z,9.39
2018-11-02T08:30:26.299Z,9.41
2018-11-02T08:31:26.225Z,9.40
2018-11-02T08:32:26.224Z,9.44
2018-11-02T08:33:26.212Z,9.43
2018-11-02T08:34:26.202Z,9.43
2018-11-02T08:35:26.211Z,9.48
2018-11-02T08:36:26.190Z,9.58
2018-11-02T08:37:26.185Z,9.62
2018-11-02T08:38:26.175Z,9.59
2018-11-02T08:39:26.346Z,9.66
2018-11-02T08:40:26.217Z,9.69
2018-11-02T08:41:26.289Z,9.86
2018-11-02T08:42:26.162Z,9.80
2018-11-02T08:43:26.142Z,9.82
2018-11-02T08:44:26.268Z,9.68
2018-11-02T08:45:26.339Z,9.76
2018-11-02T08:46:26.390Z,9.73
2018-11-02T08:47:26.771Z,9.83
2018-11-02T08:48:26.433Z,9.68
2018-11-02T08:49:26.950Z,9.84
2018-11-02T08:50:26.731Z,9.79
2018-11-02T08:51:26.995Z,9.79
2018-11-02T08:52:26.359Z,9.83
2018-11-02T08:53:27.030Z,9.86
2018-11-02T08:54:27.016Z,9.86
2018-11-02T08:55:27.172Z,9.91
2018-11-02T08:56:26.310Z,9.94
2018-11-02T08:57:26.252Z,9.92
2018-11-02T08:58:27.266Z,9.95
2018-11-02T08:59:26.204Z,9.97
2018-11-02T09:00:26.032Z,9.97
2018-11-02T09:01:26.025Z,9.95
2018-11-02T09:02:26.020Z,9.99
2018-11-02T09:03:26.928Z,9.94
2018-11-02T09:04:26.499Z,10.05
2018-11-02T09:05:26.278Z,10.01
2018-11-02T09:06:25.994Z,10.05
2018-11-02T09:07:26.017Z,10.09
2018-11-02T09:08:25.991Z,10.05
2018-11-02T09:09:26.925Z,10.07
2018-11-02T09:10:26.043Z,10.10
2018-11-02T09:11:26.147Z,10.23
2018-11-02T09:12:26.018Z,10.22
2018-11-02T09:13:26.912Z,10.22
2018-11-02T09:14:26.113Z,10.28
2018-11-02T09:15:26.132Z,10.33
2018-11-02T09:16:25.958Z,10.26
2018-11-02T09:17:25.943Z,10.33
2018-11-02T09:18:26.086Z,10.33
2018-11-02T09:19:25.980Z,10.34
2018-11-02T09:20:25.906Z,10.33
2018-11-02T09:21:25.900Z,10.37
2018-11-02T09:22:25.896Z,10.38
2018-11-02T09:23:25.887Z,10.49
2018-11-02T09:24:25.893Z,10.56
2018-11-02T09:25:25.886Z,10.53
2018-11-02T09:26:25.880Z,10.54
2018-11-02T09:27:25.993Z,10.59
2018-11-02T09:28:25.853Z,10.67
2018-11-02T09:29:25.878Z,10.61
2018-11-02T09:30:26.469Z,10.67
2018-11-02T09:31:25.840Z,10.71
2018-11-02T09:32:25.835Z,10.74
2018-11-02T09:33:25.834Z,10.71
2018-11-02T09:34:25.914Z,10.84
2018-11-02T09:35:25.815Z,10.81
2018-11-02T09:36:26.124Z,10.89
2018-11-02T09:37:25.897Z,10.89
2018-11-02T09:38:25.799Z,10.86
2018-11-02T09:39:25.793Z,10.92
2018-11-02T09:40:25.811Z,11.00
2018-11-02T09:41:26.503Z,11.00
2018-11-02T09:42:25.788Z,11.04
2018-11-02T09:43:25.771Z,11.11
2018-11-02T09:44:26.279Z,11.07
2018-11-02T09:45:25.753Z,11.15
2018-11-02T09:46:26.214Z,11.23
2018-11-02T09:47:25.744Z,11.25
2018-11-02T09:48:25.847Z,11.33
2018-11-02T09:49:25.851Z,11.37
2018-11-02T09:50:26.480Z,11.45
2018-11-02T09:51:26.492Z,11.43
2018-11-02T09:52:26.424Z,11.65
2018-11-02T09:53:25.714Z,11.57
2018-11-02T09:54:25.704Z,11.57
2018-11-02T09:55:25.702Z,11.70
2018-11-02T09:56:25.690Z,11.72
2018-11-02T09:57:25.706Z,11.77
2018-11-02T09:58:25.685Z,11.80
2018-11-02T09:59:25.676Z,11.83
2018-11-02T10:00:25.673Z,11.84
2018-11-02T10:01:25.672Z,11.97
2018-11-02T10:02:25.664Z,12.02
2018-11-02T10:03:25.661Z,12.06
2018-11-02T10:04:25.652Z,12.10
2018-11-02T10:05:25.644Z,12.20
2018-11-02T10:06:25.640Z,12.27
2018-11-02T10:07:25.808Z,12.36
2018-11-02T10:08:25.667Z,12.29
2018-11-02T10:09:25.625Z,12.39
2018-11-02T10:10:25.633Z,12.40
2018-11-02T10:11:25.631Z,12.35
2018-11-02T10:12:25.612Z,12.43
2018-11-02T10:13:25.605Z,12.49
2018-11-02T10:14:25.611Z,12.49
2018-11-02T10:15:25.599Z,12.46
2018-11-02T10:16:25.719Z,12.46
2018-11-02T10:17:25.588Z,12.43
2018-11-02T10:18:25.587Z,12.47
2018-11-02T10:19:25.574Z,12.60
2018-11-02T10:20:25.572Z,12.54
2018-11-02T10:21:25.578Z,12.58
2018-11-02T10:22:25.898Z,12.60
2018-11-02T10:23:25.653Z,12.60
2018-11-02T10:24:25.585Z,12.58
2018-11-02T10:25:26.506Z,12.62
2018-11-02T10:26:25.615Z,12.70
2018-11-02T10:27:25.539Z,12.70
2018-11-02T10:28:25.533Z,12.72
2018-11-02T10:29:25.528Z,12.79
2018-11-02T10:30:25.525Z,12.79
2018-11-02T10:31:25.524Z,12.79
2018-11-02T10:32:25.516Z,12.87
2018-11-02T10:33:25.510Z,12.80
2018-11-02T10:34:25.506Z,12.93
2018-11-02T10:35:25.842Z,12.94
2018-11-02T10:36:25.513Z,12.93
2018-11-02T10:37:25.533Z,12.97
2018-11-02T10:38:25.496Z,13.00
2018-11-02T10:39:25.488Z,13.03
2018-11-02T10:40:25.481Z,12.98
2018-11-02T10:41:25.471Z,13.08
2018-11-02T10:42:25.472Z,13.13
2018-11-02T10:43:25.723Z,13.00
2018-11-02T10:44:25.548Z,13.22
2018-11-02T10:45:25.478Z,13.13
2018-11-02T10:46:25.454Z,13.12
2018-11-02T10:47:25.452Z,13.23
2018-11-02T10:48:25.447Z,13.16
2018-11-02T10:49:25.518Z,13.25
2018-11-02T10:50:25.437Z,13.27
2018-11-02T10:51:25.437Z,13.27
2018-11-02T10:52:25.711Z,13.38
2018-11-02T10:53:26.272Z,13.33
2018-11-02T10:54:25.480Z,13.37
2018-11-02T10:55:25.418Z,13.39
2018-11-02T10:56:25.474Z,13.37
2018-11-02T10:57:25.410Z,13.30
2018-11-02T10:58:25.616Z,13.41
2018-11-02T10:59:25.402Z,13.41
2018-11-02T11:00:25.435Z,13.42
2018-11-02T11:01:25.451Z,13.42
2018-11-02T11:02:25.391Z,13.38
2018-11-02T11:03:25.387Z,13.38
2018-11-02T11:04:25.379Z,13.42
2018-11-02T11:05:25.468Z,13.35
2018-11-02T11:06:25.372Z,13.41
2018-11-02T11:07:25.368Z,13.35
2018-11-02T11:08:25.368Z,13.39
2018-11-02T11:09:25.361Z,13.38
2018-11-02T11:10:25.355Z,13.41
2018-11-02T11:11:25.538Z,13.46
2018-11-02T11:12:25.380Z,13.49
2018-11-02T11:13:25.755Z,13.56
2018-11-02T11:14:25.346Z,13.56
2018-11-02T11:15:25.334Z,13.62
2018-11-02T11:16:25.343Z,13.57
2018-11-02T11:17:25.389Z,13.57
2018-11-02T11:18:25.323Z,13.63
2018-11-02T11:19:25.321Z,13.72
2018-11-02T11:20:25.425Z,13.65
2018-11-02T11:21:25.392Z,13.70
2018-11-02T11:22:25.308Z,13.74
2018-11-02T11:23:25.306Z,13.86
2018-11-02T11:24:25.300Z,13.81
2018-11-02T11:25:25.296Z,13.78
2018-11-02T11:26:25.293Z,13.86
2018-11-02T11:27:25.288Z,13.92
2018-11-02T11:28:25.296Z,14.00
2018-11-02T11:29:25.367Z,13.93
2018-11-02T11:30:25.299Z,13.95
2018-11-02T11:31:25.274Z,14.03
2018-11-02T11:32:27.003Z,14.10
2018-11-02T11:33:25.269Z,14.12
2018-11-02T11:34:25.290Z,14.11
2018-11-02T11:35:25.259Z,14.11
2018-11-02T11:36:25.254Z,14.12
2018-11-02T11:37:25.290Z,14.08
2018-11-02T11:38:25.251Z,14.10
2018-11-02T11:39:25.299Z,14.08
2018-11-02T11:40:25.244Z,14.22
2018-11-02T11:41:25.237Z,14.25
2018-11-02T11:42:25.235Z,14.29
2018-11-02T11:43:25.239Z,14.28
2018-11-02T11:44:25.262Z,14.26
2018-11-02T11:45:25.219Z,14.35
2018-11-02T11:46:25.227Z,14.36
2018-11-02T11:47:25.214Z,14.37
2018-11-02T11:48:25.266Z,14.37
2018-11-02T11:49:25.212Z,14.37
2018-11-02T11:50:25.209Z,14.48
2018-11-02T11:51:25.201Z,14.44
2018-11-02T11:52:25.448Z,14.50
2018-11-02T11:53:25.199Z,14.54
2018-11-02T11:54:25.292Z,14.63
2018-11-02T11:55:25.193Z,14.62
2018-11-02T11:56:25.299Z,14.77
2018-11-02T11:57:25.954Z,14.77
2018-11-02T11:58:25.180Z,14.69
2018-11-02T11:59:25.177Z,14.84
2018-11-02T12:00:25.224Z,14.79
2018-11-02T12:01:25.174Z,14.91
2018-11-02T12:02:25.254Z,14.85
2018-11-02T12:03:25.166Z,14.72
2018-11-02T12:04:25.194Z,14.81
2018-11-02T12:05:25.162Z,14.69
2018-11-02T12:06:25.167Z,14.63
2018-11-02T12:07:25.419Z,14.59
2018-11-02T12:08:25.151Z,14.65
2018-11-02T12:09:25.149Z,14.55
2018-11-02T12:10:25.278Z,14.54
2018-11-02T12:11:25.141Z,14.58
2018-11-02T12:12:25.140Z,14.58
2018-11-02T12:13:25.148Z,14.63
2018-11-02T12:14:25.135Z,14.55
2018-11-02T12:15:25.128Z,14.45
2018-11-02T12:16:25.126Z,14.53
2018-11-02T12:17:25.123Z,14.51
2018-11-02T12:18:25.117Z,14.51
2018-11-02T12:19:25.120Z,14.59
2018-11-02T12:20:25.113Z,14.54
2018-11-02T12:21:25.125Z,14.60
2018-11-02T12:22:25.149Z,14.55
2018-11-02T12:23:25.190Z,14.53
2018-11-02T12:24:25.101Z,14.45
2018-11-02T12:25:25.420Z,14.55
2018-11-02T12:26:25.094Z,14.58
2018-11-02T12:27:25.097Z,14.53
2018-11-02T12:28:25.153Z,14.55
2018-11-02T12:29:25.082Z,14.51
2018-11-02T12:30:25.085Z,14.50
2018-11-02T12:31:25.085Z,14.51
2018-11-02T12:32:25.077Z,14.45
2018-11-02T12:33:25.073Z,14.48
2018-11-02T12:34:25.197Z,14.55
2018-11-02T12:35:25.071Z,14.55
2018-11-02T12:36:25.062Z,14.55
2018-11-02T12:37:25.126Z,14.51
2018-11-02T12:38:25.057Z,14.63
2018-11-02T12:39:25.060Z,14.53
2018-11-02T12:40:25.052Z,14.55
2018-11-02T12:41:25.045Z,14.65
2018-11-02T12:42:25.041Z,14.63
2018-11-02T12:43:25.051Z,14.63
2018-11-02T12:44:25.036Z,14.58
2018-11-02T12:45:25.032Z,14.63
2018-11-02T12:46:25.028Z,14.65
2018-11-02T12:47:25.029Z,14.62
2018-11-02T12:48:25.137Z,14.66
2018-11-02T12:49:25.384Z,14.63
2018-11-02T12:50:25.091Z,14.63
2018-11-02T12:51:25.037Z,14.63
2018-11-02T12:52:25.011Z,14.78
2018-11-02T12:53:25.031Z,14.62
2018-11-02T12:54:25.010Z,14.70
2018-11-02T12:55:25.990Z,14.69
2018-11-02T12:56:25.838Z,14.72
2018-11-02T12:57:25.031Z,14.73
2018-11-02T12:58:25.247Z,14.72
2018-11-02T12:59:24.992Z,14.79
2018-11-02T13:00:24.992Z,14.73
2018-11-02T13:01:24.979Z,14.73
2018-11-02T13:02:24.975Z,14.84
2018-11-02T13:03:24.972Z,14.82
2018-11-02T13:04:24.971Z,14.86
2018-11-02T13:05:24.972Z,14.81
2018-11-02T13:06:24.966Z,14.81
2018-11-02T13:07:24.958Z,14.84
2018-11-02T13:08:24.959Z,14.82
2018-11-02T13:09:25.044Z,14.91
2018-11-02T13:10:24.952Z,14.88